sensor_id;sensor_type;location;lat;lon;timestamp;pressure;altitude;pressure_sealevel;temperature;humidity
62632;BME280;48703;51.248;-0.546;2023-06-14T00:00:47;100965;;;16.46;62.69
62632;BME280;48703;51.248;-0.546;2023-06-14T00:03:49;100965;;;16.40;62.50
62632;BME280;48703;51.248;-0.546;2023-06-14T00:06:51;100962;;;16.37;62.69
62632;BME280;48703;51.248;-0.546;2023-06-14T00:09:53;100960;;;16.28;61.82
62632;BME280;48703;51.248;-0.546;2023-06-14T00:12:54;100958;;;16.17;61.61
62632;BME280;48703;51.248;-0.546;2023-06-14T00:15:56;100961;;;16.07;62.65
62632;BME280;48703;51.248;-0.546;2023-06-14T00:18:58;100963;;;15.98;62.98
62632;BME280;48703;51.248;-0.546;2023-06-14T00:22:00;100961;;;15.86;62.93
62632;BME280;48703;51.248;-0.546;2023-06-14T00:25:02;100957;;;15.77;63.41
62632;BME280;48703;51.248;-0.546;2023-06-14T00:28:04;100962;;;15.73;62.60
62632;BME280;48703;51.248;-0.546;2023-06-14T00:31:06;100965;;;15.62;63.85
62632;BME280;48703;51.248;-0.546;2023-06-14T00:34:07;100961;;;15.50;63.46
62632;BME280;48703;51.248;-0.546;2023-06-14T00:37:09;100961;;;15.51;64.78
62632;BME280;48703;51.248;-0.546;2023-06-14T00:40:11;100960;;;15.49;64.35
62632;BME280;48703;51.248;-0.546;2023-06-14T00:43:13;100959;;;15.41;64.17
62632;BME280;48703;51.248;-0.546;2023-06-14T00:46:15;100962;;;15.31;64.10
62632;BME280;48703;51.248;-0.546;2023-06-14T00:49:17;100964;;;15.25;64.23
62632;BME280;48703;51.248;-0.546;2023-06-14T00:52:19;100966;;;15.21;64.96
62632;BME280;48703;51.248;-0.546;2023-06-14T00:55:21;100963;;;15.20;65.15
62632;BME280;48703;51.248;-0.546;2023-06-14T00:58:22;100964;;;15.19;65.00
62632;BME280;48703;51.248;-0.546;2023-06-14T01:01:24;100960;;;15.13;65.25
62632;BME280;48703;51.248;-0.546;2023-06-14T01:04:26;100959;;;15.13;63.24
62632;BME280;48703;51.248;-0.546;2023-06-14T01:07:30;100959;;;15.09;62.07
62632;BME280;48703;51.248;-0.546;2023-06-14T01:10:32;100959;;;15.06;60.25
62632;BME280;48703;51.248;-0.546;2023-06-14T01:13:33;100960;;;15.05;57.75
62632;BME280;48703;51.248;-0.546;2023-06-14T01:16:34;100962;;;15.07;56.72
62632;BME280;48703;51.248;-0.546;2023-06-14T01:19:35;100964;;;15.00;57.30
62632;BME280;48703;51.248;-0.546;2023-06-14T01:22:37;100965;;;14.97;54.95
62632;BME280;48703;51.248;-0.546;2023-06-14T01:25:39;100966;;;14.94;56.29
62632;BME280;48703;51.248;-0.546;2023-06-14T01:28:41;100967;;;14.90;55.34
62632;BME280;48703;51.248;-0.546;2023-06-14T01:31:43;100967;;;14.85;55.78
62632;BME280;48703;51.248;-0.546;2023-06-14T01:34:45;100966;;;14.78;55.50
62632;BME280;48703;51.248;-0.546;2023-06-14T01:37:47;100968;;;14.72;55.74
62632;BME280;48703;51.248;-0.546;2023-06-14T01:40:48;100968;;;14.65;53.20
62632;BME280;48703;51.248;-0.546;2023-06-14T01:43:50;100966;;;14.59;53.23
62632;BME280;48703;51.248;-0.546;2023-06-14T01:46:52;100967;;;14.54;53.24
62632;BME280;48703;51.248;-0.546;2023-06-14T01:49:54;100965;;;14.47;51.92
62632;BME280;48703;51.248;-0.546;2023-06-14T01:52:56;100967;;;14.44;51.74
62632;BME280;48703;51.248;-0.546;2023-06-14T01:55:58;100967;;;14.43;51.53
62632;BME280;48703;51.248;-0.546;2023-06-14T01:59:00;100966;;;14.41;52.95
62632;BME280;48703;51.248;-0.546;2023-06-14T02:02:02;100965;;;14.36;51.55
62632;BME280;48703;51.248;-0.546;2023-06-14T02:05:04;100964;;;14.30;52.40
62632;BME280;48703;51.248;-0.546;2023-06-14T02:08:05;100965;;;14.28;52.86
62632;BME280;48703;51.248;-0.546;2023-06-14T02:11:07;100968;;;14.24;52.74
62632;BME280;48703;51.248;-0.546;2023-06-14T02:14:09;100966;;;14.16;53.69
62632;BME280;48703;51.248;-0.546;2023-06-14T02:17:11;100966;;;14.10;53.46
62632;BME280;48703;51.248;-0.546;2023-06-14T02:20:13;100964;;;14.03;51.69
62632;BME280;48703;51.248;-0.546;2023-06-14T02:23:14;100962;;;14.00;50.93
62632;BME280;48703;51.248;-0.546;2023-06-14T02:26:16;100964;;;13.94;50.58
62632;BME280;48703;51.248;-0.546;2023-06-14T02:29:18;100962;;;13.91;50.51
62632;BME280;48703;51.248;-0.546;2023-06-14T02:32:20;100958;;;13.86;52.44
62632;BME280;48703;51.248;-0.546;2023-06-14T02:35:22;100954;;;13.83;52.41
62632;BME280;48703;51.248;-0.546;2023-06-14T02:38:24;100954;;;13.78;54.00
62632;BME280;48703;51.248;-0.546;2023-06-14T02:41:26;100950;;;13.75;53.65
62632;BME280;48703;51.248;-0.546;2023-06-14T02:44:29;100949;;;13.73;55.06
62632;BME280;48703;51.248;-0.546;2023-06-14T02:47:29;100947;;;13.69;55.79
62632;BME280;48703;51.248;-0.546;2023-06-14T02:50:31;100944;;;13.67;56.25
62632;BME280;48703;51.248;-0.546;2023-06-14T02:53:33;100948;;;13.60;57.41
62632;BME280;48703;51.248;-0.546;2023-06-14T02:56:35;100948;;;13.57;58.92
62632;BME280;48703;51.248;-0.546;2023-06-14T02:59:37;100943;;;13.54;58.43
62632;BME280;48703;51.248;-0.546;2023-06-14T03:02:39;100942;;;13.50;60.03
62632;BME280;48703;51.248;-0.546;2023-06-14T03:05:41;100941;;;13.48;60.79
62632;BME280;48703;51.248;-0.546;2023-06-14T03:08:42;100941;;;13.45;59.58
62632;BME280;48703;51.248;-0.546;2023-06-14T03:11:44;100943;;;13.41;61.22
62632;BME280;48703;51.248;-0.546;2023-06-14T03:14:46;100943;;;13.36;61.74
62632;BME280;48703;51.248;-0.546;2023-06-14T03:17:48;100949;;;13.34;61.94
62632;BME280;48703;51.248;-0.546;2023-06-14T03:20:50;100949;;;13.31;62.65
62632;BME280;48703;51.248;-0.546;2023-06-14T03:23:52;100947;;;13.30;62.54
62632;BME280;48703;51.248;-0.546;2023-06-14T03:26:54;100948;;;13.25;63.73
62632;BME280;48703;51.248;-0.546;2023-06-14T03:29:55;100947;;;13.17;64.57
62632;BME280;48703;51.248;-0.546;2023-06-14T03:32:57;100947;;;13.11;64.57
62632;BME280;48703;51.248;-0.546;2023-06-14T03:35:59;100947;;;13.11;64.49
62632;BME280;48703;51.248;-0.546;2023-06-14T03:39:01;100948;;;13.09;65.11
62632;BME280;48703;51.248;-0.546;2023-06-14T03:42:03;100954;;;13.05;65.36
62632;BME280;48703;51.248;-0.546;2023-06-14T03:45:05;100955;;;13.03;65.48
62632;BME280;48703;51.248;-0.546;2023-06-14T03:48:07;100957;;;13.02;66.35
62632;BME280;48703;51.248;-0.546;2023-06-14T03:51:08;100957;;;12.98;66.79
62632;BME280;48703;51.248;-0.546;2023-06-14T03:54:10;100957;;;12.97;67.48
62632;BME280;48703;51.248;-0.546;2023-06-14T03:57:12;100957;;;12.92;67.57
62632;BME280;48703;51.248;-0.546;2023-06-14T04:00:14;100957;;;12.85;68.02
62632;BME280;48703;51.248;-0.546;2023-06-14T04:03:16;100958;;;12.80;68.23
62632;BME280;48703;51.248;-0.546;2023-06-14T04:06:18;100964;;;12.80;68.18
62632;BME280;48703;51.248;-0.546;2023-06-14T04:09:20;100965;;;12.80;69.00
62632;BME280;48703;51.248;-0.546;2023-06-14T04:12:21;100965;;;12.75;69.20
62632;BME280;48703;51.248;-0.546;2023-06-14T04:15:23;100964;;;12.74;68.92
62632;BME280;48703;51.248;-0.546;2023-06-14T04:18:25;100962;;;12.73;68.33
62632;BME280;48703;51.248;-0.546;2023-06-14T04:21:27;100964;;;12.71;69.00
62632;BME280;48703;51.248;-0.546;2023-06-14T04:24:29;100967;;;12.70;68.70
62632;BME280;48703;51.248;-0.546;2023-06-14T04:27:31;100966;;;12.68;68.62
62632;BME280;48703;51.248;-0.546;2023-06-14T04:30:33;100968;;;12.63;68.84
62632;BME280;48703;51.248;-0.546;2023-06-14T04:33:35;100969;;;12.62;68.41
62632;BME280;48703;51.248;-0.546;2023-06-14T04:36:36;100967;;;12.59;68.35
62632;BME280;48703;51.248;-0.546;2023-06-14T04:39:38;100967;;;12.59;68.29
62632;BME280;48703;51.248;-0.546;2023-06-14T04:42:40;100964;;;12.58;68.19
62632;BME280;48703;51.248;-0.546;2023-06-14T04:45:42;100967;;;12.58;68.82
62632;BME280;48703;51.248;-0.546;2023-06-14T04:48:44;100969;;;12.55;68.71
62632;BME280;48703;51.248;-0.546;2023-06-14T04:51:46;100973;;;12.54;69.32
62632;BME280;48703;51.248;-0.546;2023-06-14T04:54:47;100977;;;12.53;69.75
62632;BME280;48703;51.248;-0.546;2023-06-14T04:57:49;100976;;;12.52;70.02
62632;BME280;48703;51.248;-0.546;2023-06-14T05:00:51;100982;;;12.54;70.15
62632;BME280;48703;51.248;-0.546;2023-06-14T05:03:53;100988;;;12.55;70.12
62632;BME280;48703;51.248;-0.546;2023-06-14T05:06:55;100986;;;12.55;71.03
62632;BME280;48703;51.248;-0.546;2023-06-14T05:09:57;100982;;;12.56;71.40
62632;BME280;48703;51.248;-0.546;2023-06-14T05:12:59;100981;;;12.57;71.58
62632;BME280;48703;51.248;-0.546;2023-06-14T05:16:01;100983;;;12.58;71.62
62632;BME280;48703;51.248;-0.546;2023-06-14T05:19:02;100985;;;12.63;71.69
62632;BME280;48703;51.248;-0.546;2023-06-14T05:22:04;100984;;;12.67;71.94
62632;BME280;48703;51.248;-0.546;2023-06-14T05:25:06;100985;;;12.70;72.15
62632;BME280;48703;51.248;-0.546;2023-06-14T05:28:08;100988;;;12.72;72.48
62632;BME280;48703;51.248;-0.546;2023-06-14T05:31:10;100986;;;12.75;72.74
62632;BME280;48703;51.248;-0.546;2023-06-14T05:34:12;100984;;;12.77;73.41
62632;BME280;48703;51.248;-0.546;2023-06-14T05:37:14;100982;;;12.80;73.49
62632;BME280;48703;51.248;-0.546;2023-06-14T05:40:15;100984;;;12.83;73.44
62632;BME280;48703;51.248;-0.546;2023-06-14T05:43:17;100987;;;12.88;73.82
62632;BME280;48703;51.248;-0.546;2023-06-14T05:46:19;100988;;;12.97;73.99
62632;BME280;48703;51.248;-0.546;2023-06-14T05:49:21;100987;;;13.03;75.18
62632;BME280;48703;51.248;-0.546;2023-06-14T05:52:23;100986;;;13.05;74.83
62632;BME280;48703;51.248;-0.546;2023-06-14T05:55:25;100986;;;13.11;74.70
62632;BME280;48703;51.248;-0.546;2023-06-14T05:58:27;100982;;;13.18;74.99
62632;BME280;48703;51.248;-0.546;2023-06-14T06:01:28;100977;;;13.23;75.35
62632;BME280;48703;51.248;-0.546;2023-06-14T06:04:30;100977;;;13.28;76.07
62632;BME280;48703;51.248;-0.546;2023-06-14T06:07:32;100979;;;13.31;75.67
62632;BME280;48703;51.248;-0.546;2023-06-14T06:10:34;100979;;;13.36;75.20
62632;BME280;48703;51.248;-0.546;2023-06-14T06:13:36;100978;;;13.44;76.17
62632;BME280;48703;51.248;-0.546;2023-06-14T06:16:38;100978;;;13.48;75.76
62632;BME280;48703;51.248;-0.546;2023-06-14T06:19:40;100979;;;13.53;75.82
62632;BME280;48703;51.248;-0.546;2023-06-14T06:22:41;100982;;;13.59;75.57
62632;BME280;48703;51.248;-0.546;2023-06-14T06:25:43;100986;;;13.65;75.66
62632;BME280;48703;51.248;-0.546;2023-06-14T06:28:45;100991;;;13.71;76.77
62632;BME280;48703;51.248;-0.546;2023-06-14T06:31:47;100995;;;13.78;76.49
62632;BME280;48703;51.248;-0.546;2023-06-14T06:34:49;100997;;;13.89;76.19
62632;BME280;48703;51.248;-0.546;2023-06-14T06:37:51;100995;;;13.97;75.85
62632;BME280;48703;51.248;-0.546;2023-06-14T06:40:53;100998;;;14.03;76.49
62632;BME280;48703;51.248;-0.546;2023-06-14T06:43:54;101002;;;14.07;75.97
62632;BME280;48703;51.248;-0.546;2023-06-14T06:46:57;101005;;;14.16;75.98
62632;BME280;48703;51.248;-0.546;2023-06-14T06:49:58;101005;;;14.20;75.48
62632;BME280;48703;51.248;-0.546;2023-06-14T06:53:00;101007;;;14.23;75.42
62632;BME280;48703;51.248;-0.546;2023-06-14T06:56:02;101008;;;14.28;74.88
62632;BME280;48703;51.248;-0.546;2023-06-14T06:59:04;101012;;;14.39;75.23
62632;BME280;48703;51.248;-0.546;2023-06-14T07:02:06;101014;;;14.52;75.13
62632;BME280;48703;51.248;-0.546;2023-06-14T07:05:08;101013;;;14.61;74.92
62632;BME280;48703;51.248;-0.546;2023-06-14T07:08:09;101014;;;14.66;75.35
62632;BME280;48703;51.248;-0.546;2023-06-14T07:11:11;101011;;;14.72;74.98
62632;BME280;48703;51.248;-0.546;2023-06-14T07:14:13;101014;;;14.81;74.88
62632;BME280;48703;51.248;-0.546;2023-06-14T07:17:15;101017;;;14.92;75.70
62632;BME280;48703;51.248;-0.546;2023-06-14T07:20:17;101018;;;14.96;74.76
62632;BME280;48703;51.248;-0.546;2023-06-14T07:23:19;101019;;;14.99;75.27
62632;BME280;48703;51.248;-0.546;2023-06-14T07:26:21;101020;;;15.10;74.09
62632;BME280;48703;51.248;-0.546;2023-06-14T07:29:22;101026;;;15.19;74.83
62632;BME280;48703;51.248;-0.546;2023-06-14T07:32:24;101029;;;15.26;74.88
62632;BME280;48703;51.248;-0.546;2023-06-14T07:35:26;101028;;;15.30;73.91
62632;BME280;48703;51.248;-0.546;2023-06-14T07:38:28;101030;;;15.37;73.98
62632;BME280;48703;51.248;-0.546;2023-06-14T07:41:30;101034;;;15.49;74.38
62632;BME280;48703;51.248;-0.546;2023-06-14T07:44:32;101034;;;15.55;74.62
62632;BME280;48703;51.248;-0.546;2023-06-14T07:47:34;101033;;;15.64;74.32
62632;BME280;48703;51.248;-0.546;2023-06-14T07:50:35;101034;;;15.69;74.02
62632;BME280;48703;51.248;-0.546;2023-06-14T07:53:37;101037;;;15.75;73.80
62632;BME280;48703;51.248;-0.546;2023-06-14T07:56:39;101036;;;15.82;74.00
62632;BME280;48703;51.248;-0.546;2023-06-14T07:59:41;101037;;;15.93;73.95
62632;BME280;48703;51.248;-0.546;2023-06-14T08:02:43;101033;;;16.01;73.35
62632;BME280;48703;51.248;-0.546;2023-06-14T08:05:45;101036;;;16.09;73.45
62632;BME280;48703;51.248;-0.546;2023-06-14T08:08:47;101034;;;16.15;73.40
62632;BME280;48703;51.248;-0.546;2023-06-14T08:11:48;101030;;;16.24;73.33
62632;BME280;48703;51.248;-0.546;2023-06-14T08:14:50;101032;;;16.36;73.55
62632;BME280;48703;51.248;-0.546;2023-06-14T08:17:52;101032;;;16.52;73.12
62632;BME280;48703;51.248;-0.546;2023-06-14T08:20:54;101034;;;16.61;72.93
62632;BME280;48703;51.248;-0.546;2023-06-14T08:23:57;101035;;;16.71;72.43
62632;BME280;48703;51.248;-0.546;2023-06-14T08:26:58;101040;;;16.82;72.93
62632;BME280;48703;51.248;-0.546;2023-06-14T08:30:00;101041;;;16.94;71.70
62632;BME280;48703;51.248;-0.546;2023-06-14T08:33:01;101041;;;17.02;72.03
62632;BME280;48703;51.248;-0.546;2023-06-14T08:36:04;101041;;;17.09;71.50
62632;BME280;48703;51.248;-0.546;2023-06-14T08:39:05;101041;;;17.21;72.32
62632;BME280;48703;51.248;-0.546;2023-06-14T08:42:07;101041;;;17.33;71.56
62632;BME280;48703;51.248;-0.546;2023-06-14T08:45:09;101040;;;17.47;71.09
62632;BME280;48703;51.248;-0.546;2023-06-14T08:48:11;101037;;;17.56;70.03
62632;BME280;48703;51.248;-0.546;2023-06-14T08:51:13;101037;;;17.66;70.64
62632;BME280;48703;51.248;-0.546;2023-06-14T08:54:14;101041;;;17.79;69.78
62632;BME280;48703;51.248;-0.546;2023-06-14T08:57:16;101042;;;17.88;69.78
62632;BME280;48703;51.248;-0.546;2023-06-14T09:00:18;101038;;;17.97;68.67
62632;BME280;48703;51.248;-0.546;2023-06-14T09:03:20;101042;;;18.09;68.82
62632;BME280;48703;51.248;-0.546;2023-06-14T09:06:22;101043;;;18.20;68.51
62632;BME280;48703;51.248;-0.546;2023-06-14T09:09:24;101040;;;18.34;68.77
62632;BME280;48703;51.248;-0.546;2023-06-14T09:12:26;101043;;;18.48;68.68
62632;BME280;48703;51.248;-0.546;2023-06-14T09:15:28;101047;;;18.60;68.57
62632;BME280;48703;51.248;-0.546;2023-06-14T09:18:34;101047;;;18.71;67.05
62632;BME280;48703;51.248;-0.546;2023-06-14T09:21:33;101049;;;18.80;66.89
62632;BME280;48703;51.248;-0.546;2023-06-14T09:24:33;101049;;;18.91;66.71
62632;BME280;48703;51.248;-0.546;2023-06-14T09:27:35;101052;;;19.08;65.15
62632;BME280;48703;51.248;-0.546;2023-06-14T09:30:37;101055;;;19.22;65.07
62632;BME280;48703;51.248;-0.546;2023-06-14T09:33:41;101056;;;19.34;64.92
62632;BME280;48703;51.248;-0.546;2023-06-14T09:36:41;101057;;;19.44;63.56
62632;BME280;48703;51.248;-0.546;2023-06-14T09:39:49;101052;;;19.60;63.54
62632;BME280;48703;51.248;-0.546;2023-06-14T09:42:44;101053;;;19.70;63.16
62632;BME280;48703;51.248;-0.546;2023-06-14T09:45:46;101058;;;19.80;63.08
62632;BME280;48703;51.248;-0.546;2023-06-14T09:48:48;101053;;;19.93;61.88
62632;BME280;48703;51.248;-0.546;2023-06-14T09:51:50;101055;;;20.03;61.85
62632;BME280;48703;51.248;-0.546;2023-06-14T09:54:52;101056;;;20.18;61.36
62632;BME280;48703;51.248;-0.546;2023-06-14T09:57:54;101056;;;20.26;61.57
62632;BME280;48703;51.248;-0.546;2023-06-14T10:00:55;101056;;;20.41;61.39
62632;BME280;48703;51.248;-0.546;2023-06-14T10:03:59;101052;;;20.47;61.68
62632;BME280;48703;51.248;-0.546;2023-06-14T10:06:59;101053;;;20.58;61.10
62632;BME280;48703;51.248;-0.546;2023-06-14T10:10:01;101053;;;20.69;60.89
62632;BME280;48703;51.248;-0.546;2023-06-14T10:13:03;101053;;;20.85;60.61
62632;BME280;48703;51.248;-0.546;2023-06-14T10:16:07;101052;;;20.98;60.43
62632;BME280;48703;51.248;-0.546;2023-06-14T10:19:07;101055;;;21.07;58.74
62632;BME280;48703;51.248;-0.546;2023-06-14T10:22:09;101054;;;21.19;58.40
62632;BME280;48703;51.248;-0.546;2023-06-14T10:25:12;101053;;;21.26;57.80
62632;BME280;48703;51.248;-0.546;2023-06-14T10:28:16;101052;;;21.37;58.70
62632;BME280;48703;51.248;-0.546;2023-06-14T10:31:14;101047;;;21.45;57.13
62632;BME280;48703;51.248;-0.546;2023-06-14T10:34:23;101045;;;21.54;56.00
62632;BME280;48703;51.248;-0.546;2023-06-14T10:37:18;101049;;;21.67;55.62
62632;BME280;48703;51.248;-0.546;2023-06-14T10:40:30;101047;;;21.76;56.03
62632;BME280;48703;51.248;-0.546;2023-06-14T10:43:22;101048;;;21.82;54.85
62632;BME280;48703;51.248;-0.546;2023-06-14T10:46:23;101039;;;21.90;54.32
62632;BME280;48703;51.248;-0.546;2023-06-14T10:49:36;101040;;;22.00;54.49
62632;BME280;48703;51.248;-0.546;2023-06-14T10:52:28;101041;;;22.11;54.42
62632;BME280;48703;51.248;-0.546;2023-06-14T10:55:29;101041;;;22.20;53.86
62632;BME280;48703;51.248;-0.546;2023-06-14T10:58:31;101040;;;22.29;53.43
62632;BME280;48703;51.248;-0.546;2023-06-14T11:01:36;101044;;;22.38;53.31
62632;BME280;48703;51.248;-0.546;2023-06-14T11:03:50;101044;;;22.42;52.89
62632;BME280;48703;51.248;-0.546;2023-06-14T11:06:45;101041;;;22.49;52.51
62632;BME280;48703;51.248;-0.546;2023-06-14T11:09:49;101042;;;22.59;52.34
62632;BME280;48703;51.248;-0.546;2023-06-14T11:12:39;101040;;;22.63;50.79
62632;BME280;48703;51.248;-0.546;2023-06-14T11:15:47;101042;;;22.70;51.88
62632;BME280;48703;51.248;-0.546;2023-06-14T11:18:43;101039;;;22.76;50.31
62632;BME280;48703;51.248;-0.546;2023-06-14T11:21:46;101032;;;22.82;50.21
62632;BME280;48703;51.248;-0.546;2023-06-14T11:24:47;101032;;;22.89;50.97
62632;BME280;48703;51.248;-0.546;2023-06-14T11:27:49;101031;;;22.93;50.41
62632;BME280;48703;51.248;-0.546;2023-06-14T11:30:59;101028;;;22.98;49.60
62632;BME280;48703;51.248;-0.546;2023-06-14T11:33:53;101027;;;23.10;49.85
62632;BME280;48703;51.248;-0.546;2023-06-14T11:36:54;101026;;;23.18;47.25
62632;BME280;48703;51.248;-0.546;2023-06-14T11:39:56;101024;;;23.22;48.22
62632;BME280;48703;51.248;-0.546;2023-06-14T11:42:58;101028;;;23.28;48.25
62632;BME280;48703;51.248;-0.546;2023-06-14T11:46:00;101029;;;23.32;47.79
62632;BME280;48703;51.248;-0.546;2023-06-14T11:49:02;101024;;;23.45;46.49
62632;BME280;48703;51.248;-0.546;2023-06-14T11:52:04;101024;;;23.49;46.58
62632;BME280;48703;51.248;-0.546;2023-06-14T11:55:06;101021;;;23.53;45.27
62632;BME280;48703;51.248;-0.546;2023-06-14T11:58:07;101017;;;23.58;45.31
62632;BME280;48703;51.248;-0.546;2023-06-14T12:01:09;101014;;;23.63;44.40
62632;BME280;48703;51.248;-0.546;2023-06-14T12:04:11;101012;;;23.71;44.16
62632;BME280;48703;51.248;-0.546;2023-06-14T12:07:13;101004;;;23.75;43.19
62632;BME280;48703;51.248;-0.546;2023-06-14T12:10:15;101007;;;23.83;43.04
62632;BME280;48703;51.248;-0.546;2023-06-14T12:13:17;101000;;;23.84;43.21
62632;BME280;48703;51.248;-0.546;2023-06-14T12:16:18;101001;;;23.90;43.73
62632;BME280;48703;51.248;-0.546;2023-06-14T12:19:20;100999;;;23.95;43.45
62632;BME280;48703;51.248;-0.546;2023-06-14T12:22:22;101004;;;24.02;40.72
62632;BME280;48703;51.248;-0.546;2023-06-14T12:25:26;101000;;;23.97;41.07
62632;BME280;48703;51.248;-0.546;2023-06-14T12:28:30;101004;;;23.91;41.79
62632;BME280;48703;51.248;-0.546;2023-06-14T12:31:28;100999;;;23.90;41.52
62632;BME280;48703;51.248;-0.546;2023-06-14T12:34:30;101005;;;23.84;41.17
62632;BME280;48703;51.248;-0.546;2023-06-14T12:37:32;101001;;;23.86;41.72
62632;BME280;48703;51.248;-0.546;2023-06-14T12:40:33;101003;;;23.95;41.40
62632;BME280;48703;51.248;-0.546;2023-06-14T12:43:35;101001;;;24.08;40.21
62632;BME280;48703;51.248;-0.546;2023-06-14T12:46:37;101001;;;24.09;40.73
62632;BME280;48703;51.248;-0.546;2023-06-14T12:49:39;100995;;;24.12;40.03
62632;BME280;48703;51.248;-0.546;2023-06-14T12:52:41;101001;;;24.17;39.10
62632;BME280;48703;51.248;-0.546;2023-06-14T12:55:43;101002;;;24.26;38.88
62632;BME280;48703;51.248;-0.546;2023-06-14T12:58:45;101004;;;24.21;38.97
62632;BME280;48703;51.248;-0.546;2023-06-14T13:01:46;101004;;;24.16;39.97
62632;BME280;48703;51.248;-0.546;2023-06-14T13:04:48;101001;;;24.08;39.37
62632;BME280;48703;51.248;-0.546;2023-06-14T13:07:50;101002;;;24.09;39.98
62632;BME280;48703;51.248;-0.546;2023-06-14T13:10:52;101002;;;24.18;39.63
62632;BME280;48703;51.248;-0.546;2023-06-14T13:13:54;101003;;;24.29;38.14
62632;BME280;48703;51.248;-0.546;2023-06-14T13:16:56;101001;;;24.42;38.84
62632;BME280;48703;51.248;-0.546;2023-06-14T13:19:58;101005;;;24.41;38.86
62632;BME280;48703;51.248;-0.546;2023-06-14T13:22:59;101003;;;24.45;39.38
62632;BME280;48703;51.248;-0.546;2023-06-14T13:26:01;101006;;;24.49;37.30
62632;BME280;48703;51.248;-0.546;2023-06-14T13:29:03;101005;;;24.58;37.32
62632;BME280;48703;51.248;-0.546;2023-06-14T13:32:05;101007;;;24.70;37.10
62632;BME280;48703;51.248;-0.546;2023-06-14T13:35:07;101006;;;24.82;36.76
62632;BME280;48703;51.248;-0.546;2023-06-14T13:38:09;100997;;;24.91;36.20
62632;BME280;48703;51.248;-0.546;2023-06-14T13:41:11;100999;;;24.98;36.77
62632;BME280;48703;51.248;-0.546;2023-06-14T13:43:19;100997;;;25.02;37.70
62632;BME280;48703;51.248;-0.546;2023-06-14T13:46:14;100996;;;25.09;36.92
62632;BME280;48703;51.248;-0.546;2023-06-14T13:49:16;100993;;;25.16;36.63
62632;BME280;48703;51.248;-0.546;2023-06-14T13:52:17;100989;;;25.24;36.53
62632;BME280;48703;51.248;-0.546;2023-06-14T13:55:19;100989;;;25.31;36.46
62632;BME280;48703;51.248;-0.546;2023-06-14T13:58:21;100989;;;25.39;36.77
62632;BME280;48703;51.248;-0.546;2023-06-14T14:01:23;100989;;;25.48;35.91
62632;BME280;48703;51.248;-0.546;2023-06-14T14:04:25;100993;;;25.58;36.16
62632;BME280;48703;51.248;-0.546;2023-06-14T14:07:27;100996;;;25.68;35.37
62632;BME280;48703;51.248;-0.546;2023-06-14T14:10:29;100993;;;25.79;35.30
62632;BME280;48703;51.248;-0.546;2023-06-14T14:13:30;100994;;;25.90;34.56
62632;BME280;48703;51.248;-0.546;2023-06-14T14:16:32;100993;;;25.95;35.75
62632;BME280;48703;51.248;-0.546;2023-06-14T14:19:34;100995;;;25.99;35.06
62632;BME280;48703;51.248;-0.546;2023-06-14T14:22:36;100994;;;26.04;33.68
62632;BME280;48703;51.248;-0.546;2023-06-14T14:25:38;100999;;;26.11;33.84
62632;BME280;48703;51.248;-0.546;2023-06-14T14:28:40;100999;;;26.16;32.95
62632;BME280;48703;51.248;-0.546;2023-06-14T14:31:42;100999;;;26.28;32.93
62632;BME280;48703;51.248;-0.546;2023-06-14T14:34:43;100995;;;26.36;33.28
62632;BME280;48703;51.248;-0.546;2023-06-14T14:37:45;100999;;;26.50;33.74
62632;BME280;48703;51.248;-0.546;2023-06-14T14:40:47;100997;;;26.62;31.27
62632;BME280;48703;51.248;-0.546;2023-06-14T14:43:49;100999;;;26.75;31.58
62632;BME280;48703;51.248;-0.546;2023-06-14T14:46:51;101001;;;26.87;33.07
62632;BME280;48703;51.248;-0.546;2023-06-14T14:49:53;100999;;;26.99;32.12
62632;BME280;48703;51.248;-0.546;2023-06-14T14:52:55;100997;;;27.07;31.87
62632;BME280;48703;51.248;-0.546;2023-06-14T14:55:56;100999;;;27.19;32.71
62632;BME280;48703;51.248;-0.546;2023-06-14T14:58:58;101004;;;27.30;30.94
62632;BME280;48703;51.248;-0.546;2023-06-14T15:02:00;101005;;;27.32;30.57
62632;BME280;48703;51.248;-0.546;2023-06-14T15:05:02;101000;;;27.37;31.04
62632;BME280;48703;51.248;-0.546;2023-06-14T15:08:04;100997;;;27.46;32.97
62632;BME280;48703;51.248;-0.546;2023-06-14T15:11:06;100997;;;27.48;31.83
62632;BME280;48703;51.248;-0.546;2023-06-14T15:14:08;100995;;;27.58;30.68
62632;BME280;48703;51.248;-0.546;2023-06-14T15:17:09;100994;;;27.72;32.58
62632;BME280;48703;51.248;-0.546;2023-06-14T15:20:12;100990;;;27.80;32.04
62632;BME280;48703;51.248;-0.546;2023-06-14T15:23:13;100990;;;27.84;31.03
62632;BME280;48703;51.248;-0.546;2023-06-14T15:26:15;100992;;;27.91;31.13
62632;BME280;48703;51.248;-0.546;2023-06-14T15:29:17;100992;;;27.91;29.89
62632;BME280;48703;51.248;-0.546;2023-06-14T15:32:19;100991;;;27.95;30.81
62632;BME280;48703;51.248;-0.546;2023-06-14T15:35:21;100994;;;28.01;30.70
62632;BME280;48703;51.248;-0.546;2023-06-14T15:38:22;100997;;;28.11;29.91
62632;BME280;48703;51.248;-0.546;2023-06-14T15:41:24;100997;;;27.97;31.17
62632;BME280;48703;51.248;-0.546;2023-06-14T15:44:26;100999;;;27.78;30.73
62632;BME280;48703;51.248;-0.546;2023-06-14T15:47:28;101000;;;27.55;30.66
62632;BME280;48703;51.248;-0.546;2023-06-14T15:50:30;100998;;;27.33;30.61
62632;BME280;48703;51.248;-0.546;2023-06-14T15:53:32;100994;;;27.27;32.29
62632;BME280;48703;51.248;-0.546;2023-06-14T15:56:34;100996;;;27.34;32.50
62632;BME280;48703;51.248;-0.546;2023-06-14T15:59:35;100997;;;27.44;33.42
62632;BME280;48703;51.248;-0.546;2023-06-14T16:02:37;100999;;;27.33;30.99
62632;BME280;48703;51.248;-0.546;2023-06-14T16:05:39;100996;;;27.17;31.87
62632;BME280;48703;51.248;-0.546;2023-06-14T16:08:41;100995;;;27.05;31.63
62632;BME280;48703;51.248;-0.546;2023-06-14T16:11:43;100996;;;27.17;33.08